Cytokinetics Inc (NASDAQ:CYTK)

CAPS Rating: 3 out of 5

A biopharmaceutical company, focused on developing small molecule therapeutics for the treatment of cardiovascular diseases and cancer.

Results 1 - 99 of 197 : 1 2 Next »
Top
Pick
Member Name Member
Rating
Start
Date
Call Time
Frame
Start
Price
Stock
Gain
Index
Gain
Score Commentary
njn81 < 20 7/30/2014 Outperform 5Y $4.14 +2.17% -1.91% +4.08 0 Comment
hayrettin 70.08 7/30/2014 Outperform 5Y $4.18 +1.20% -1.84% +3.03 0 Comment
OklaBoston 68.87 7/21/2014 Outperform 1Y $4.25 -0.47% -2.03% +1.56 1 Comment
GyroDynasty 98.89 7/21/2014 Outperform 5Y $4.25 -0.47% -2.03% +1.56 0 Comment
OKwarrior 30.12 6/6/2014 Outperform 5Y $4.88 -13.32% -0.91% -12.41 1 Comment
ArmyRob 74.11 5/7/2014 Underperform 5Y $4.14 +2.17% +2.97% +0.80 0 Comment
77lucky < 20 4/29/2014 Outperform 5Y $4.53 -6.73% +2.99% -9.72 0 Comment
foufou1971 67.79 4/28/2014 Outperform 1Y $4.35 -2.76% +3.90% -6.66 0 Comment
AsianMatter 43.33 4/28/2014 Outperform 3W $4.58 -7.64% +3.23% -10.87 0 Comment
portefeuille2 99.50 4/25/2014 Outperform 5Y $4.91 -13.76% +3.49% -17.25 0 Comment
peregrine 96.61 4/25/2014 Outperform 5Y $5.07 -16.57% +3.76% -20.33 0 Comment
SandmanKy 95.37 4/25/2014 Outperform 5Y $5.01 -15.56% +3.52% -19.08 0 Comment
DoubleBagel 78.95 4/25/2014 Outperform 5Y $5.22 -18.97% +3.10% -22.07 0 Comment
portefeuille 99.60 4/16/2014 Outperform 5Y $8.95 -52.74% +4.11% -56.85 0 Comment
TerryFool < 20 4/15/2014 Outperform 5Y $8.94 -52.68% +6.02% -58.71 1 Comment
TerryHoodSr 46.74 4/15/2014 Outperform 5Y $8.94 -52.68% +5.36% -58.04 1 Comment
msb09 34.25 4/2/2014 Outperform 3M $9.79 -56.79% +2.44% -59.23 0 Comment
Haugurafpeningum 51.30 3/31/2014 Outperform 5Y $9.20 -54.02% +3.45% -57.47 0 Comment
IVolStrategy 34.80 3/26/2014 Outperform 1Y $9.02 -53.10% +3.24% -56.34 0 Comment
BioForcePicks1 94.25 3/25/2014 Outperform 3M $8.94 -52.68% +3.73% -56.42 0 Comment
Dmaral < 20 2/27/2014 Outperform 5Y $10.31 -58.97% +4.22% -63.19 0 Comment
car990le 53.81 1/21/2014 Outperform 5Y $8.91 -52.53% +4.54% -57.07 0 Comment
Plasmidologist 73.91 1/16/2014 Outperform 5Y $9.27 -54.37% +4.96% -59.33 0 Comment
This player feels very strongly about this pick and has marked it a Top Pick. Top Picks do not affect a player’s score. s2dbaker 89.55 1/10/2014 Outperform 5Y $9.22 -54.12% +5.15% -59.27 1 Comment
flypower 97.93 1/7/2014 Outperform 5Y $7.30 -42.05% +5.46% -47.52 0 Comment
HoosierDoozer < 20 12/23/2013 Outperform 5Y $6.60 -35.91% +5.78% -41.69 0 Comment
grahamfordummies 69.63 8/8/2013 12/4/2013 Outperform 3Y $10.21 -58.57% +13.60% -72.17 1 Comment
cavemantrader 49.34 11/7/2013 Outperform 5Y $6.33 -33.18% +10.35% -43.53 0 Comment
willyRD 38.21 10/9/2013 Outperform 1Y $6.65 -36.39% +16.46% -52.85 0 Comment
mandynshane < 20 10/8/2013 Outperform NS $6.69 -36.77% +15.78% -52.55 0 Comment
ImFive 32.82 10/7/2013 Outperform 5Y $7.03 -39.83% +15.33% -55.16 0 Comment
ralonsot < 20 10/2/2013 Outperform 5Y $7.38 -42.68% +14.38% -57.06 0 Comment
withoutDoubt 25.92 9/5/2013 Outperform 5Y $8.32 -49.19% +16.24% -65.42 0 Comment
fatmoneyrz 95.50 9/3/2013 Outperform 5Y $7.79 -45.70% +16.82% -62.52 0 Comment
KidJones 97.43 9/3/2013 Outperform 5Y $8.62 -50.93% +16.86% -67.79 0 Comment
maximstrelzow 99.09 8/30/2013 Outperform NS $10.81 -60.87% +17.37% -78.24 0 Comment
anchak 99.85 8/29/2013 Outperform NS $10.81 -60.89% +17.36% -78.25 0 Comment
Greeniesnack 55.00 8/23/2013 Outperform 5Y $11.11 -61.93% +15.94% -77.86 0 Comment
sublimeinvestor 34.37 8/22/2013 Outperform 5Y $11.03 -61.67% +16.20% -77.87 0 Comment
FoolPep 36.49 8/22/2013 Outperform 3M $11.60 -63.53% +17.10% -80.63 0 Comment
SCOTTRHUETTLCPA 63.92 8/19/2013 Underperform 3W $10.18 -58.45% +16.90% +75.34 0 Comment
rknapton < 20 8/7/2013 Underperform 5Y $10.55 -59.91% +14.13% +74.03 1 Comment
ababrmon 77.28 7/31/2013 Outperform 3M $12.47 -66.08% +14.47% -80.55 0 Comment
efarev 98.84 2/4/2011 7/26/2013 Outperform 5Y $11.16 -62.10% +47.55% -109.65 0 Comment
ronmcpeek < 20 7/19/2013 Outperform 5Y $13.43 -68.50% +14.58% -83.08 0 Comment
TMFEZMagic 56.82 7/15/2013 Underperform 5Y $13.76 -69.26% +14.99% +84.25 0 Comment
batman35 20.48 7/12/2013 Outperform 1Y $13.60 -68.90% +15.28% -84.17 0 Comment
kaletbaldrich27 < 20 7/10/2013 Outperform 1Y $13.30 -68.20% +17.16% -85.36 1 Comment
Jsams82 < 20 7/1/2013 Outperform 1Y $11.58 -63.47% +19.74% -83.21 0 Comment
OriginalBarnacle 73.42 7/1/2013 Underperform 1Y $11.58 -63.47% +19.74% +83.21 0 Comment
JJ68 < 20 6/26/2013 Outperform 5Y $12.10 -65.06% +20.98% -86.04 0 Comment
ytryan 68.19 6/19/2013 Outperform 5Y $11.28 -62.50% +17.26% -79.76 0 Comment
Scraming < 20 6/19/2013 Outperform 3M $11.58 -63.47% +16.65% -80.12 0 Comment
saab93boi < 20 6/18/2013 Underperform 5Y $11.10 -61.89% +16.39% +78.28 0 Comment
shonny2 < 20 5/22/2013 Outperform 5Y $6.90 -38.69% +15.17% -53.86 0 Comment
OttoBismarck 99.88 5/10/2013 Underperform 5Y $6.42 -34.11% +18.47% +52.58 0 Comment
mcdbenbe 50.97 2/19/2013 Outperform 5Y $6.24 -32.21% +26.72% -58.94 0 Comment
ava5147 < 20 2/19/2013 Outperform 1Y $6.24 -32.21% +26.72% -58.94 0 Comment
montys3 55.65 1/22/2013 Outperform 5Y $5.99 -29.34% +29.73% -59.06 0 Comment
Spyrig < 20 12/17/2012 Outperform 5Y $4.02 +5.22% +35.53% -30.31 0 Comment
mdrnsamurai < 20 12/12/2012 Outperform 5Y $4.29 -1.40% +34.09% -35.49 0 Comment
jack0071 76.79 11/27/2012 Outperform 3Y $4.20 +0.71% +37.03% -36.32 0 Comment
danculbertson 57.71 10/15/2012 Outperform 3M $4.41 -4.08% +34.40% -38.48 0 Comment
millerto 37.73 8/31/2012 Outperform 1Y $4.58 -7.59% +37.00% -44.59 0 Comment
IdahoInvestor 28.97 8/8/2012 Underperform 5Y $4.00 +5.73% +37.42% +31.69 0 Comment
iadops40 36.71 7/13/2012 Outperform 1Y $4.02 +5.22% +44.25% -39.02 0 Comment
THERULERGOD < 20 7/11/2012 Outperform 5Y $4.26 -0.70% +43.87% -44.58 0 Comment
greentah 62.80 7/9/2012 Outperform 5Y $4.32 -2.08% +42.63% -44.71 0 Comment
HongHue < 20 7/6/2012 Outperform 1Y $3.90 +8.46% +42.53% -34.07 0 Comment
Harlequinvestor 37.81 6/18/2012 Outperform 1Y $5.16 -18.02% +44.55% -62.57 0 Comment
ConradMike55 < 20 5/10/2012 Outperform 3W $5.58 -24.19% +41.27% -65.47 0 Comment
Arsenal1860 < 20 5/10/2012 Outperform 5Y $5.58 -24.19% +41.27% -65.47 0 Comment
MythQuinn 89.92 5/8/2012 Outperform 3Y $5.52 -23.37% +41.44% -64.81 0 Comment
stainsolution 42.47 5/8/2012 Outperform 5Y $5.70 -25.79% +41.69% -67.48 0 Comment
foolbull12 < 20 5/8/2012 Outperform 5Y $5.52 -23.37% +41.84% -65.21 0 Comment
RBuskey106 45.28 3/15/2012 Outperform 5Y $7.14 -40.76% +37.36% -78.12 1 Comment
TechSci < 20 3/6/2012 Outperform 5Y $6.54 -35.32% +43.08% -78.40 0 Comment
ReaperKK < 20 2/13/2012 Outperform 1Y $7.08 -40.25% +43.08% -83.34 1 Comment
mhy729 33.22 2/17/2011 2/13/2012 Outperform 1Y $9.18 -53.91% +44.42% -98.33 0 Comment
drt2202 < 20 12/29/2011 Outperform 5Y $5.94 -28.79% +54.18% -82.96 0 Comment
CaptainVegetable < 20 8/5/2011 Outperform 5Y $7.14 -40.76% +58.80% -99.56 0 Comment
pobeda79 31.52 6/20/2011 Outperform 5Y $6.90 -38.70% +52.50% -91.19 0 Comment
amsteinberg86 < 20 5/31/2011 Outperform 3Y $8.64 -51.04% +43.27% -94.32 0 Comment
codyjr002 98.75 5/27/2011 Outperform 5Y $8.64 -51.04% +44.64% -95.68 0 Comment
Thleter 66.51 5/24/2011 Outperform 1Y $8.10 -47.78% +46.31% -94.09 1 Comment
ag77840 23.25 5/18/2011 Outperform 5Y $8.61 -50.87% +43.90% -94.77 0 Comment
Doggity 71.95 5/17/2011 Outperform 5Y $8.64 -51.04% +45.52% -96.56 0 Comment
Euro247 37.26 5/13/2011 Outperform 5Y $8.79 -51.88% +44.24% -96.11 0 Comment
inouye 40.00 5/3/2011 Outperform 1Y $8.52 -50.35% +42.44% -92.79 0 Comment
NVTreasureHunter 29.03 4/27/2011 Outperform NS $9.00 -53.00% +42.98% -95.98 0 Comment
Squeege1981 72.20 4/18/2011 Outperform 5Y $8.64 -51.04% +47.86% -98.90 0 Comment
reachmygoals1 < 20 4/11/2011 Outperform 3M $8.94 -52.68% +45.18% -97.87 0 Comment
limeonaire 98.23 4/4/2011 Outperform 5Y $9.00 -53.00% +44.71% -97.71 0 Comment
ajhers2 < 20 3/25/2011 Outperform 5Y $8.46 -50.00% +46.46% -96.46 0 Comment
lombardy 48.96 3/22/2011 Outperform 5Y $7.62 -44.49% +48.85% -93.34 0 Comment
binyalazar < 20 3/10/2011 Outperform 5Y $8.99 -52.97% +47.87% -100.84 0 Comment
WorldOnFire 28.36 2/23/2011 Outperform 3W $8.70 -51.38% +46.56% -97.94 0 Comment
HackInvestor < 20 2/22/2011 Outperform 5Y $9.12 -53.62% +45.05% -98.67 0 Comment
cheaply 21.80 2/10/2011 Outperform 1Y $11.16 -62.09% +46.72% -108.82 1 Comment
Results 1 - 99 of 197 : 1 2 Next »

Featured Broker Partners


Advertisement